Pevek, Russia
Current Conditions -  °F | °C
As of 4:55 PM on Thursday 23 Oct 2014 (Local Time) from PALU Reporting Station
Broken Clouds Broken Clouds  
Wind Chill:   Ceiling: 1300
Heat Index: 24°   Visibility: 10mi
Dew Point: 21°   Wind: 30mph
Humidity: 88%   Direction: 80°E
Pressure: 29.91"   Gusts: NA
Location:  69.7°N, 170.38°E
Report Text: PALU 230455Z AUTO 08026KT 10SM BKN013 M04/M06 A2991 RMK AO2 PK WND 09029/0454 SLP127 T10441061
Loading
Personal Weather Stations






























Interactive Weather Map New forecast layout! Learn more

10-Day Weather Forecast

Advertisements
Track Severe Weather on mobile